KPHF

Newport News / Williamsburg International Airport

Newport News, Virginia, USA
KPHF 212320Z 2200/2224 33013G20KT P6SM SKC FM221100 35008KT P6SM SKC FM221700 VRB03KT P6SM SKC
Issued Valid From Valid To
Jan-21 @ 23:20 UTC
(an hour ago)
Jan-22 @ 00:00 UTC
(40 minutes ago)
Jan-23 @ 00:00 UTC
(in 23 hours)
Jan-22 @ 00:00 to Jan-22 @ 11:00
KPHF 212320Z 2200/2224 33013G20KT P6SM SKC
Wind Visibility Clouds
330° at 13 knots
 Gusting to 20 knots
Greater than 6 miles
  • Clear skies
From Jan-22 @ 11:00 to Jan-22 @ 17:00
FM221100 35008KT P6SM SKC
Wind Visibility Clouds
350° at 8 knots Greater than 6 miles
  • Clear skies
From Jan-22 @ 17:00 to Jan-23 @ 00:00
FM221700 VRB03KT P6SM SKC
Wind Visibility Clouds
Variable at 3 knots Greater than 6 miles
  • Clear skies
KPHF 212320Z 2200/2224 33013G20KT P6SM SKC FM221100 35008KT P6SM SKC FM221700 VRB03KT P6SM SKC
Issued Jan-21 @ 23:20 UTC
(an hour ago)
Valid From Jan-22 @ 00:00 UTC
(40 minutes ago)
Valid To Jan-23 @ 00:00 UTC
(in 23 hours)
Jan-22 @ 00:00 - Jan-22 @ 11:00
Wind Visibility
330° at 13 knots
 Gusting to 20 knots
Greater than 6 miles
Clouds
  • Clear skies
From Jan-22 @ 11:00 - Jan-22 @ 17:00
Wind Visibility
350° at 8 knots Greater than 6 miles
Clouds
  • Clear skies
From Jan-22 @ 17:00 - Jan-23 @ 00:00
Wind Visibility
Variable at 3 knots Greater than 6 miles
Clouds
  • Clear skies